createdAt,value
2023-01-15T00:00:27.941Z,10.1
2023-01-15T00:01:35.248Z,8.5
2023-01-15T00:02:42.242Z,9.3
2023-01-15T00:03:49.391Z,9.7
2023-01-15T00:04:56.267Z,8.6
2023-01-15T00:06:03.670Z,9.3
2023-01-15T00:07:10.652Z,9.6
2023-01-15T00:08:18.087Z,7.7
2023-01-15T00:09:25.443Z,9.6
2023-01-15T00:10:32.648Z,8
2023-01-15T00:11:39.750Z,7.3
2023-01-15T00:12:46.958Z,7.9
2023-01-15T00:13:54.146Z,10.9
2023-01-15T00:15:01.166Z,10.9
2023-01-15T00:16:08.299Z,7.6
2023-01-15T00:17:15.429Z,8.4
2023-01-15T00:18:22.602Z,8
2023-01-15T00:19:30.874Z,7.8
2023-01-15T00:20:37.994Z,9.1
2023-01-15T00:21:45.151Z,9.1
2023-01-15T00:22:52.124Z,9.8
2023-01-15T00:23:59.271Z,9.1
2023-01-15T00:25:11.534Z,9.3
2023-01-15T00:26:23.814Z,8.9
2023-01-15T00:27:36.942Z,8.7
2023-01-15T00:28:44.194Z,9.2
2023-01-15T00:29:51.398Z,7.4
2023-01-15T00:30:58.382Z,7.4
2023-01-15T00:32:05.469Z,6.8
2023-01-15T00:33:12.613Z,10.5
2023-01-15T00:34:19.752Z,6.9
2023-01-15T00:35:26.932Z,6.3
2023-01-15T00:36:34.085Z,8
2023-01-15T00:37:41.288Z,9.8
2023-01-15T00:38:48.398Z,8.3
2023-01-15T00:39:55.822Z,8.7
2023-01-15T00:41:03.125Z,8.6
2023-01-15T00:42:10.472Z,8.6
2023-01-15T00:43:17.889Z,8.1
2023-01-15T00:44:24.997Z,7.6
2023-01-15T00:45:32.132Z,8.5
2023-01-15T00:46:39.420Z,8.5
2023-01-15T00:47:46.632Z,8.6
2023-01-15T00:48:53.915Z,10.1
2023-01-15T00:50:01.150Z,8.6
2023-01-15T00:51:08.248Z,7.2
2023-01-15T00:52:15.441Z,7.7
2023-01-15T00:53:22.627Z,7.9
2023-01-15T00:54:29.866Z,7.7
2023-01-15T00:55:36.954Z,7.2
2023-01-15T00:56:44.081Z,6.4
2023-01-15T00:57:51.448Z,6.6
2023-01-15T00:58:58.252Z,6.5
2023-01-15T01:00:05.550Z,8.2
2023-01-15T01:01:13.218Z,8.2
2023-01-15T01:02:20.282Z,6.5
2023-01-15T01:03:27.345Z,7.1
2023-01-15T01:04:34.495Z,7.5
2023-01-15T01:05:41.708Z,6.4
2023-01-15T01:06:48.847Z,6.7
2023-01-15T01:07:55.880Z,7.6
2023-01-15T01:09:03.010Z,7.8
2023-01-15T01:10:10.967Z,8
2023-01-15T01:11:18.259Z,7.2
2023-01-15T01:12:25.839Z,8.3
2023-01-15T01:13:34.265Z,6.5
2023-01-15T01:14:41.367Z,7.1
2023-01-15T01:15:48.512Z,7.3
2023-01-15T01:16:55.517Z,7.9
2023-01-15T01:18:02.676Z,8.7
2023-01-15T01:19:09.873Z,10.4
2023-01-15T01:20:17.105Z,9.6
2023-01-15T01:21:24.195Z,12.7
2023-01-15T01:22:33.291Z,9.3
2023-01-15T01:23:40.861Z,7.9
2023-01-15T01:24:48.198Z,7.5
2023-01-15T01:25:55.173Z,7.9
2023-01-15T01:27:02.332Z,7.3
2023-01-15T01:28:09.778Z,7.5
2023-01-15T01:29:16.704Z,8.4
2023-01-15T01:30:23.749Z,6.2
2023-01-15T01:31:31.098Z,8.7
2023-01-15T01:32:38.046Z,7.7
2023-01-15T01:33:48.274Z,9.1
2023-01-15T01:34:55.235Z,8
2023-01-15T01:36:02.451Z,7.6
2023-01-15T01:37:09.569Z,6.5
2023-01-15T01:38:16.726Z,7.6
2023-01-15T01:39:23.836Z,7.1
2023-01-15T01:40:31.026Z,6.2
2023-01-15T01:41:38.170Z,9.3
2023-01-15T01:42:45.374Z,7.7
2023-01-15T01:43:52.602Z,8.3
2023-01-15T01:45:07.590Z,6.9
2023-01-15T01:46:20.343Z,7.4
2023-01-15T01:47:27.553Z,6.7
2023-01-15T01:48:34.784Z,6.7
2023-01-15T01:49:41.978Z,7.5
2023-01-15T01:50:48.948Z,7.8
2023-01-15T01:51:55.915Z,7.5
2023-01-15T01:53:03.112Z,6.8
2023-01-15T01:54:10.269Z,9.4
2023-01-15T01:55:17.454Z,6.6
2023-01-15T01:56:24.578Z,6.2
2023-01-15T01:57:31.731Z,6.8
2023-01-15T01:58:39.141Z,7.7
2023-01-15T01:59:46.037Z,7
2023-01-15T02:00:53.115Z,6.5
2023-01-15T02:02:00.358Z,7.1
2023-01-15T02:03:07.395Z,6.3
2023-01-15T02:04:15.471Z,6.8
2023-01-15T02:05:22.718Z,6.6
2023-01-15T02:06:32.958Z,7.1
2023-01-15T02:07:40.130Z,6.2
2023-01-15T02:08:47.206Z,7.3
2023-01-15T02:09:54.221Z,6.8
2023-01-15T02:11:01.396Z,7.7
2023-01-15T02:12:08.734Z,8.3
2023-01-15T02:13:25.907Z,7.9
2023-01-15T02:14:38.216Z,7.6
2023-01-15T02:15:55.869Z,6.6
2023-01-15T02:17:11.175Z,7.3
2023-01-15T02:18:21.341Z,7.9
2023-01-15T02:19:31.103Z,8.4
2023-01-15T02:20:43.345Z,7
2023-01-15T02:22:00.606Z,7.7
2023-01-15T02:23:07.724Z,7.2
2023-01-15T02:24:23.025Z,7.1
2023-01-15T02:25:35.292Z,7.2
2023-01-15T02:26:52.636Z,8
2023-01-15T02:28:04.749Z,7
2023-01-15T02:29:14.488Z,6.6
2023-01-15T02:30:21.625Z,8.5
2023-01-15T02:31:28.784Z,6.7
2023-01-15T02:32:41.068Z,8.7
2023-01-15T02:33:53.257Z,6.9
2023-01-15T02:35:02.834Z,8.4
2023-01-15T02:36:17.745Z,7
2023-01-15T02:37:24.856Z,7.7
2023-01-15T02:38:31.899Z,6
2023-01-15T02:39:39.094Z,5.5
2023-01-15T02:40:46.276Z,6.2
2023-01-15T02:41:53.471Z,6.1
2023-01-15T02:43:00.528Z,6.3
2023-01-15T02:44:07.699Z,6.4
2023-01-15T02:45:14.701Z,5.7
2023-01-15T02:46:21.976Z,6.6
2023-01-15T02:47:29.034Z,5.4
2023-01-15T02:48:36.160Z,5.4
2023-01-15T02:49:43.449Z,5.2
2023-01-15T02:50:50.486Z,5
2023-01-15T02:52:00.594Z,5.8
2023-01-15T02:53:10.316Z,4.9
2023-01-15T02:54:17.440Z,6.2
2023-01-15T02:55:24.657Z,5.2
2023-01-15T02:56:31.753Z,5.3
2023-01-15T02:57:41.520Z,5.3
2023-01-15T02:58:48.704Z,4.7
2023-01-15T02:59:55.680Z,5.8
2023-01-15T03:01:02.895Z,5.5
2023-01-15T03:02:13.072Z,4.5
2023-01-15T03:03:22.778Z,6.4
2023-01-15T03:04:29.853Z,4.7
2023-01-15T03:05:45.119Z,6.4
2023-01-15T03:06:52.556Z,5.6
2023-01-15T03:08:02.500Z,4.5
2023-01-15T03:09:09.740Z,5.2
2023-01-15T03:10:16.712Z,4.8
2023-01-15T03:11:23.850Z,5.7
2023-01-15T03:12:30.984Z,5.7
2023-01-15T03:13:41.235Z,6.6
2023-01-15T03:14:53.447Z,5.3
2023-01-15T03:16:10.723Z,4.4
2023-01-15T03:17:25.444Z,5.6
2023-01-15T03:18:37.712Z,4.7
2023-01-15T03:19:50.497Z,4.7
2023-01-15T03:20:58.824Z,4.6
2023-01-15T03:22:04.609Z,6.6
2023-01-15T03:23:19.993Z,4.5
2023-01-15T03:24:27.137Z,5
2023-01-15T03:25:36.812Z,5.4
2023-01-15T03:26:43.940Z,5.5
2023-01-15T03:27:51.140Z,5
2023-01-15T03:28:58.038Z,4.3
2023-01-15T03:30:05.178Z,6.3
2023-01-15T03:31:17.509Z,4.8
2023-01-15T03:32:24.664Z,4.5
2023-01-15T03:33:31.868Z,4.4
2023-01-15T03:34:39.008Z,5
2023-01-15T03:35:49.150Z,4.4
2023-01-15T03:36:59.272Z,4.4
2023-01-15T03:38:06.397Z,4.5
2023-01-15T03:39:13.511Z,4.3
2023-01-15T03:40:20.624Z,4.7
2023-01-15T03:41:27.802Z,4.9
2023-01-15T03:42:43.103Z,4.5
2023-01-15T03:43:53.404Z,4.9
2023-01-15T03:45:06.001Z,4.1
2023-01-15T03:46:15.764Z,5.1
2023-01-15T03:47:30.984Z,6.5
2023-01-15T03:48:43.271Z,5.3
2023-01-15T03:49:50.317Z,5.6
2023-01-15T03:51:00.428Z,7.5
2023-01-15T03:52:15.693Z,5.3
2023-01-15T03:53:32.983Z,4.1
2023-01-15T03:54:48.449Z,5.3
2023-01-15T03:55:55.823Z,5.2
2023-01-15T03:57:02.996Z,4.9
2023-01-15T03:58:13.224Z,5.1
2023-01-15T03:59:22.926Z,4.1
2023-01-15T04:00:30.057Z,4.9
2023-01-15T04:01:37.447Z,4.3
2023-01-15T04:02:44.477Z,3.9
2023-01-15T04:03:51.591Z,4.5
2023-01-15T04:04:58.503Z,4.7
2023-01-15T04:06:05.711Z,5.2
2023-01-15T04:07:12.836Z,4.2
2023-01-15T04:08:20.043Z,4.3
2023-01-15T04:09:27.150Z,4.9
2023-01-15T04:10:34.735Z,4.7
2023-01-15T04:11:41.492Z,4.5
2023-01-15T04:12:48.711Z,4
2023-01-15T04:13:55.607Z,4.6
2023-01-15T04:15:02.844Z,4.3
2023-01-15T04:16:10.473Z,6.3
2023-01-15T04:17:17.687Z,4.1
2023-01-15T04:18:24.833Z,4
2023-01-15T04:19:31.939Z,4.2
2023-01-15T04:20:39.164Z,4.6
2023-01-15T04:21:46.309Z,5
2023-01-15T04:22:53.452Z,5
2023-01-15T04:24:00.430Z,5.4
2023-01-15T04:25:08.143Z,5.5
2023-01-15T04:26:15.242Z,4.3
2023-01-15T04:27:22.384Z,6.2
2023-01-15T04:28:29.592Z,6.1
2023-01-15T04:29:36.764Z,5.7
2023-01-15T04:30:43.912Z,4.4
2023-01-15T04:31:51.069Z,4.5
2023-01-15T04:32:58.027Z,4.1
2023-01-15T04:34:05.122Z,6.1
2023-01-15T04:35:12.395Z,5.4
2023-01-15T04:36:19.656Z,6.4
2023-01-15T04:37:26.591Z,5.5
2023-01-15T04:38:33.757Z,5.8
2023-01-15T04:39:40.896Z,8
2023-01-15T04:40:48.133Z,5.5
2023-01-15T04:42:00.156Z,5.8
2023-01-15T04:43:15.464Z,8.4
2023-01-15T04:44:27.815Z,6.2
2023-01-15T04:45:35.119Z,6
2023-01-15T04:46:42.156Z,6.3
2023-01-15T04:47:49.216Z,5.6
2023-01-15T04:48:56.253Z,4.9
2023-01-15T04:50:03.355Z,5.6
2023-01-15T04:51:10.685Z,4.8
2023-01-15T04:52:17.673Z,4.5
2023-01-15T04:53:24.809Z,4.6
2023-01-15T04:54:31.934Z,5.6
2023-01-15T04:55:39.135Z,5.2
2023-01-15T04:56:46.322Z,6
2023-01-15T04:57:56.293Z,4.9
2023-01-15T04:59:03.512Z,4.5
2023-01-15T05:00:10.584Z,4.9
2023-01-15T05:01:17.843Z,4.8
2023-01-15T05:02:25.020Z,4.4
2023-01-15T05:03:32.038Z,4.7
2023-01-15T05:04:39.458Z,5.7
2023-01-15T05:05:46.436Z,6.8
2023-01-15T05:06:53.569Z,6
2023-01-15T05:08:00.497Z,6.6
2023-01-15T05:09:07.651Z,5.6
2023-01-15T05:10:14.827Z,5.6
2023-01-15T05:11:22.057Z,5
2023-01-15T05:12:29.285Z,5.8
2023-01-15T05:13:36.262Z,5.9
2023-01-15T05:14:43.441Z,5.2
2023-01-15T05:15:50.639Z,5.5
2023-01-15T05:16:57.571Z,5.2
2023-01-15T05:18:04.853Z,5.2
2023-01-15T05:19:11.920Z,5.4
2023-01-15T05:20:19.026Z,4.9
2023-01-15T05:21:26.132Z,5.1
2023-01-15T05:22:33.309Z,5.7
2023-01-15T05:23:40.505Z,5.3
2023-01-15T05:24:47.700Z,4.9
2023-01-15T05:25:54.745Z,5.4
2023-01-15T05:27:01.770Z,5.5
2023-01-15T05:28:08.921Z,5.1
2023-01-15T05:29:16.048Z,4.8
2023-01-15T05:30:23.277Z,6.1
2023-01-15T05:31:30.418Z,4.5
2023-01-15T05:32:37.514Z,6.7
2023-01-15T05:33:44.680Z,6.1
2023-01-15T05:34:51.800Z,7.2
2023-01-15T05:35:58.864Z,5.8
2023-01-15T05:37:08.995Z,7.2
2023-01-15T05:38:16.199Z,5.9
2023-01-15T05:39:23.496Z,5.7
2023-01-15T05:40:30.476Z,7.2
2023-01-15T05:41:37.657Z,7.1
2023-01-15T05:42:50.035Z,6.3
2023-01-15T05:43:57.370Z,6.5
2023-01-15T05:45:04.560Z,6.6
2023-01-15T05:46:12.141Z,6.9
2023-01-15T05:47:19.341Z,6.1
2023-01-15T05:48:26.673Z,7.3
2023-01-15T05:49:33.724Z,7.4
2023-01-15T05:50:40.750Z,6.5
2023-01-15T05:51:47.950Z,6.3
2023-01-15T05:52:55.086Z,6.7
2023-01-15T05:54:02.061Z,7.7
2023-01-15T05:55:09.292Z,8.1
2023-01-15T05:56:16.366Z,8
2023-01-15T05:57:23.512Z,10
2023-01-15T05:58:30.677Z,10.6
2023-01-15T05:59:37.876Z,11.4
2023-01-15T06:00:44.963Z,11.9
2023-01-15T06:01:52.264Z,12.5
2023-01-15T06:02:59.641Z,12.6
2023-01-15T06:04:06.771Z,13.1
2023-01-15T06:05:13.928Z,13.3
2023-01-15T06:06:20.984Z,12.8
2023-01-15T06:07:28.220Z,13.3
2023-01-15T06:08:35.438Z,13.8
2023-01-15T06:09:42.537Z,13.4
2023-01-15T06:10:49.682Z,13.9
2023-01-15T06:11:56.723Z,13.2
2023-01-15T06:13:03.829Z,14.8
2023-01-15T06:14:10.970Z,13
2023-01-15T06:15:18.153Z,14.1
2023-01-15T06:16:25.300Z,13
2023-01-15T06:17:32.461Z,12.6
2023-01-15T06:18:39.610Z,11.2
2023-01-15T06:19:46.756Z,11.6
2023-01-15T06:20:53.841Z,9.9
2023-01-15T06:22:01.021Z,9.9
2023-01-15T06:23:07.926Z,9.2
2023-01-15T06:24:15.088Z,9.4
2023-01-15T06:25:22.213Z,8.7
2023-01-15T06:26:29.383Z,10.9
2023-01-15T06:27:36.577Z,10.6
2023-01-15T06:28:43.669Z,10.8
2023-01-15T06:29:50.844Z,12.3
2023-01-15T06:30:57.837Z,11.4
2023-01-15T06:32:04.930Z,14.3
2023-01-15T06:33:12.173Z,10.7
2023-01-15T06:34:19.304Z,11.8
2023-01-15T06:35:26.432Z,13.9
2023-01-15T06:36:33.508Z,11.1
2023-01-15T06:37:40.745Z,11.9
2023-01-15T06:38:47.837Z,11.6
2023-01-15T06:39:55.007Z,12.2
2023-01-15T06:41:02.188Z,12.1
2023-01-15T06:42:09.191Z,11.6
2023-01-15T06:43:21.419Z,12.7
2023-01-15T06:44:33.660Z,10.6
2023-01-15T06:45:45.845Z,12.9
2023-01-15T06:46:57.990Z,12.5
2023-01-15T06:48:15.334Z,11.6
2023-01-15T06:49:22.617Z,12.8
2023-01-15T06:50:29.667Z,11.5
2023-01-15T06:51:36.760Z,12.1
2023-01-15T06:52:43.910Z,12.3
2023-01-15T06:53:51.016Z,10.2
2023-01-15T06:54:58.073Z,11.3
2023-01-15T06:56:05.298Z,14.6
2023-01-15T06:57:12.567Z,12.8
2023-01-15T06:58:20.040Z,12.3
2023-01-15T06:59:27.162Z,12.6
2023-01-15T07:00:34.435Z,11.5
2023-01-15T07:01:41.475Z,12.6
2023-01-15T07:02:48.712Z,13
2023-01-15T07:03:55.852Z,12.3
2023-01-15T07:05:02.820Z,12.3
2023-01-15T07:06:09.883Z,12.5
2023-01-15T07:07:17.050Z,12.1
2023-01-15T07:08:24.211Z,13.2
2023-01-15T07:09:31.575Z,11.6
2023-01-15T07:10:38.498Z,12.9
2023-01-15T07:11:45.644Z,11.1
2023-01-15T07:12:52.872Z,10.8
2023-01-15T07:14:00.327Z,12.5
2023-01-15T07:15:10.008Z,10.5
2023-01-15T07:16:17.176Z,11
2023-01-15T07:17:29.348Z,10.9
2023-01-15T07:18:36.624Z,11.5
2023-01-15T07:19:43.757Z,11.8
2023-01-15T07:20:50.830Z,10.6
2023-01-15T07:21:57.750Z,11.9
2023-01-15T07:23:04.948Z,12.3
2023-01-15T07:24:12.128Z,11.5
2023-01-15T07:25:19.235Z,11.6
2023-01-15T07:26:26.615Z,12.3
2023-01-15T07:27:33.546Z,13.8
2023-01-15T07:28:40.677Z,13.4
2023-01-15T07:29:47.715Z,13.3
2023-01-15T07:30:54.900Z,13.9
2023-01-15T07:32:02.032Z,14.4
2023-01-15T07:33:09.131Z,16
2023-01-15T07:34:16.212Z,14.9
2023-01-15T07:35:23.383Z,15.6
2023-01-15T07:36:30.544Z,17.4
2023-01-15T07:37:37.689Z,15.7
2023-01-15T07:38:44.884Z,15.3
2023-01-15T07:39:52.148Z,13.9
2023-01-15T07:40:59.440Z,17.1
2023-01-15T07:42:11.916Z,14.7
2023-01-15T07:43:24.175Z,14.6
2023-01-15T07:44:36.200Z,13.8
2023-01-15T07:45:48.567Z,13.2
2023-01-15T07:47:00.579Z,14.3
2023-01-15T07:48:15.977Z,15.9
2023-01-15T07:49:28.133Z,15.1
2023-01-15T07:50:40.340Z,14.6
2023-01-15T07:51:47.597Z,13
2023-01-15T07:52:54.835Z,14.6
2023-01-15T07:54:01.873Z,17.2
2023-01-15T07:55:08.838Z,14.8
2023-01-15T07:56:15.996Z,11
2023-01-15T07:57:23.175Z,12.9
2023-01-15T07:58:30.328Z,11.8
2023-01-15T07:59:37.546Z,10.8
2023-01-15T08:00:44.812Z,9.3
2023-01-15T08:01:51.925Z,10.9
2023-01-15T08:02:58.756Z,9.8
2023-01-15T08:04:06.020Z,10.3
2023-01-15T08:05:16.172Z,10
2023-01-15T08:06:23.259Z,9.7
2023-01-15T08:07:30.461Z,9
2023-01-15T08:08:40.653Z,12.3
2023-01-15T08:09:47.845Z,8.9
2023-01-15T08:10:54.860Z,8.4
2023-01-15T08:12:07.638Z,8.1
2023-01-15T08:13:19.725Z,8.6
2023-01-15T08:14:32.022Z,8.5
2023-01-15T08:15:44.312Z,8.4
2023-01-15T08:16:51.363Z,8.7
2023-01-15T08:17:58.407Z,7.9
2023-01-15T08:19:05.562Z,7.8
2023-01-15T08:20:12.977Z,7.4
2023-01-15T08:21:19.791Z,7.8
2023-01-15T08:22:26.946Z,8.9
2023-01-15T08:23:34.083Z,7.9
2023-01-15T08:24:41.247Z,7.9
2023-01-15T08:25:48.621Z,8.2
2023-01-15T08:26:55.580Z,8.2
2023-01-15T08:28:02.966Z,7.9
2023-01-15T08:29:10.171Z,8.2
2023-01-15T08:30:17.321Z,8.5
2023-01-15T08:31:24.598Z,8.6
2023-01-15T08:32:31.861Z,8.4
2023-01-15T08:33:39.213Z,8.4
2023-01-15T08:34:46.051Z,7.9
2023-01-15T08:35:53.514Z,8.8
2023-01-15T08:37:00.768Z,8.4
2023-01-15T08:38:07.855Z,9
2023-01-15T08:39:15.116Z,7.5
2023-01-15T08:40:22.246Z,10.2
2023-01-15T08:41:29.279Z,9.2
2023-01-15T08:42:36.463Z,8.6
2023-01-15T08:43:43.572Z,8.8
2023-01-15T08:44:50.798Z,9.4
2023-01-15T08:45:58.171Z,8.5
2023-01-15T08:47:05.432Z,9.8
2023-01-15T08:48:12.551Z,10.5
2023-01-15T08:49:19.728Z,10.1
2023-01-15T08:50:26.844Z,10.2
2023-01-15T08:51:34.018Z,10.4
2023-01-15T08:52:41.396Z,11.9
2023-01-15T08:53:49.193Z,10.4
2023-01-15T08:54:56.493Z,10
2023-01-15T08:56:03.421Z,10.2
2023-01-15T08:57:15.547Z,11.3
2023-01-15T08:58:22.847Z,10.5
2023-01-15T08:59:32.946Z,10.7
2023-01-15T09:00:40.165Z,9.7
2023-01-15T09:01:47.511Z,9.2
2023-01-15T09:02:54.492Z,10.3
2023-01-15T09:04:01.446Z,11.1
2023-01-15T09:05:09.578Z,11.8
2023-01-15T09:06:16.749Z,9.8
2023-01-15T09:07:24.032Z,9.5
2023-01-15T09:08:31.055Z,9
2023-01-15T09:09:38.247Z,8.9
2023-01-15T09:10:45.381Z,9.9
2023-01-15T09:11:52.577Z,9.1
2023-01-15T09:12:59.434Z,8.7
2023-01-15T09:14:06.586Z,9.5
2023-01-15T09:15:13.781Z,7.7
2023-01-15T09:16:20.960Z,8.9
2023-01-15T09:17:28.257Z,8.2
2023-01-15T09:18:35.500Z,9.1
2023-01-15T09:19:42.367Z,8.8
2023-01-15T09:20:49.568Z,9
2023-01-15T09:21:56.642Z,7.4
2023-01-15T09:23:03.852Z,7.3
2023-01-15T09:24:10.830Z,9.1
2023-01-15T09:25:17.927Z,7.1
2023-01-15T09:26:25.051Z,7.7
2023-01-15T09:27:32.234Z,7.6
2023-01-15T09:28:39.488Z,8.4
2023-01-15T09:29:46.547Z,7.7
2023-01-15T09:30:53.810Z,9.3
2023-01-15T09:32:01.077Z,9.5
2023-01-15T09:33:08.227Z,9
2023-01-15T09:34:15.403Z,8.8
2023-01-15T09:35:22.582Z,8.1
2023-01-15T09:36:29.631Z,7
2023-01-15T09:37:36.848Z,8.1
2023-01-15T09:38:44.007Z,7.9
2023-01-15T09:39:51.180Z,7.8
2023-01-15T09:40:58.306Z,6.5
2023-01-15T09:42:05.268Z,6.4
2023-01-15T09:43:14.935Z,6.4
2023-01-15T09:44:27.127Z,7.1
2023-01-15T09:45:39.417Z,6
2023-01-15T09:46:46.558Z,7.6
2023-01-15T09:47:58.665Z,7.1
2023-01-15T09:49:10.959Z,7.7
2023-01-15T09:50:23.402Z,7.8
2023-01-15T09:51:39.102Z,6.5
2023-01-15T09:52:56.374Z,5.9
2023-01-15T09:54:11.512Z,6.5
2023-01-15T09:55:21.255Z,6.7
2023-01-15T09:56:28.388Z,6.9
2023-01-15T09:57:35.795Z,5.9
2023-01-15T09:58:42.951Z,6.2
2023-01-15T09:59:49.856Z,7.1
2023-01-15T10:00:57.101Z,6.7
2023-01-15T10:02:04.051Z,7.6
2023-01-15T10:03:16.306Z,7.4
2023-01-15T10:04:28.553Z,9.9
2023-01-15T10:05:40.792Z,8.3
2023-01-15T10:06:48.008Z,7.5
2023-01-15T10:07:55.063Z,8.3
2023-01-15T10:09:07.138Z,7.3
2023-01-15T10:10:16.798Z,7.6
2023-01-15T10:11:21.942Z,6.8
2023-01-15T10:12:32.224Z,6.3
2023-01-15T10:13:39.299Z,7.3
2023-01-15T10:14:52.096Z,6.1
2023-01-15T10:16:09.404Z,6.7
2023-01-15T10:17:16.686Z,6.5
2023-01-15T10:18:31.783Z,7.1
2023-01-15T10:19:44.528Z,7.6
2023-01-15T10:20:46.141Z,7.6
2023-01-15T10:21:58.300Z,7.4
2023-01-15T10:23:13.985Z,7.8
2023-01-15T10:24:31.313Z,7.6
2023-01-15T10:25:41.573Z,7.3
2023-01-15T10:26:53.732Z,7.3
2023-01-15T10:28:00.746Z,7.7
2023-01-15T10:29:10.474Z,6.5
2023-01-15T10:30:20.685Z,6.6
2023-01-15T10:31:35.965Z,8.2
2023-01-15T10:33:01.369Z,7.5
2023-01-15T10:33:58.427Z,6
2023-01-15T10:35:13.565Z,7.6
2023-01-15T10:36:30.933Z,8
2023-01-15T10:37:45.806Z,6.8
2023-01-15T10:39:03.393Z,7.8
2023-01-15T10:40:20.750Z,9
2023-01-15T10:41:38.222Z,7.6
2023-01-15T10:42:55.492Z,8.4
2023-01-15T10:44:13.258Z,8.3
2023-01-15T10:45:27.907Z,10.5
2023-01-15T10:46:37.628Z,9.3
2023-01-15T10:47:44.769Z,9.1
2023-01-15T10:48:52.016Z,19.2
2023-01-15T10:49:59.079Z,10.5
2023-01-15T10:51:06.010Z,10.1
2023-01-15T10:52:15.771Z,10.1
2023-01-15T10:53:25.900Z,10.3
2023-01-15T10:54:38.273Z,10
2023-01-15T10:55:45.358Z,8.5
2023-01-15T10:57:00.502Z,10.4
2023-01-15T10:58:11.177Z,15.5
2023-01-15T10:59:17.873Z,9.9
2023-01-15T11:00:38.217Z,13.3
2023-01-15T11:01:45.487Z,9
2023-01-15T11:02:55.576Z,8.9
2023-01-15T11:04:05.670Z,9.4
2023-01-15T11:05:15.936Z,10.2
2023-01-15T11:06:22.930Z,10.7
2023-01-15T11:07:30.098Z,10.7
2023-01-15T11:09:07.724Z,14
2023-01-15T11:09:54.591Z,12.6
2023-01-15T11:11:01.732Z,10.9
2023-01-15T11:12:17.046Z,11.9
2023-01-15T11:13:29.265Z,14.3
2023-01-15T11:14:41.551Z,11.9
2023-01-15T11:15:53.801Z,21.3
2023-01-15T11:17:05.968Z,12.9
2023-01-15T11:18:18.279Z,18.6
2023-01-15T11:19:30.287Z,10.9
2023-01-15T11:20:40.473Z,13.3
2023-01-15T11:21:47.618Z,11.1
2023-01-15T11:22:54.830Z,10.6
2023-01-15T11:24:01.873Z,10.5
2023-01-15T11:25:09.470Z,18.4
2023-01-15T11:26:16.601Z,13
2023-01-15T11:27:26.866Z,15.9
2023-01-15T11:28:34.049Z,13.3
2023-01-15T11:29:41.185Z,13.5
2023-01-15T11:30:48.255Z,7.8
2023-01-15T11:31:58.608Z,7.8
2023-01-15T11:33:05.665Z,11.9
2023-01-15T11:34:22.941Z,12.1
2023-01-15T11:35:30.029Z,10.4
2023-01-15T11:36:37.269Z,10.6
2023-01-15T11:37:44.563Z,11.4
2023-01-15T11:38:51.522Z,11.3
2023-01-15T11:39:58.663Z,8.4
2023-01-15T11:41:05.600Z,9.6
2023-01-15T11:42:23.090Z,9.2
2023-01-15T11:43:35.235Z,9.4
2023-01-15T11:44:47.429Z,18.9
2023-01-15T11:45:59.793Z,10.2
2023-01-15T11:47:19.470Z,11.7
2023-01-15T11:48:29.247Z,13.3
2023-01-15T11:49:46.617Z,12.3
2023-01-15T11:50:58.902Z,12.9
2023-01-15T11:52:11.897Z,14.9
2023-01-15T11:53:24.574Z,18.8
2023-01-15T11:54:31.787Z,9.7
2023-01-15T11:55:44.083Z,12
2023-01-15T11:56:56.340Z,14.7
2023-01-15T11:58:03.313Z,14.4
2023-01-15T11:59:10.369Z,15.5
2023-01-15T12:00:20.036Z,15.7
2023-01-15T12:01:32.423Z,22
2023-01-15T12:02:39.426Z,15.8
2023-01-15T12:03:49.189Z,16.6
2023-01-15T12:04:56.266Z,10.9
2023-01-15T12:06:03.372Z,12.9
2023-01-15T12:07:10.577Z,10.3
2023-01-15T12:08:17.660Z,10.5
2023-01-15T12:09:27.842Z,9.8
2023-01-15T12:10:38.077Z,11.4
2023-01-15T12:11:53.354Z,11.1
2023-01-15T12:13:08.024Z,10
2023-01-15T12:14:17.713Z,8.9
2023-01-15T12:15:35.090Z,8.4
2023-01-15T12:16:47.353Z,9.1
2023-01-15T12:18:04.585Z,8.9
2023-01-15T12:19:21.867Z,8.8
2023-01-15T12:20:39.282Z,8.8
2023-01-15T12:21:51.530Z,7.2
2023-01-15T12:23:08.874Z,7.7
2023-01-15T12:24:21.988Z,7.6
2023-01-15T12:25:34.190Z,9.6
2023-01-15T12:26:41.461Z,9.7
2023-01-15T12:27:51.107Z,9.3
2023-01-15T12:28:58.323Z,8
2023-01-15T12:30:08.343Z,9
2023-01-15T12:31:20.560Z,8.9
2023-01-15T12:32:27.583Z,8.1
2023-01-15T12:33:34.745Z,11.1
2023-01-15T12:34:41.932Z,10.6
2023-01-15T12:35:59.446Z,8.9
2023-01-15T12:37:06.825Z,9
2023-01-15T12:38:19.458Z,8.7
2023-01-15T12:39:31.761Z,11.3
2023-01-15T12:40:43.968Z,12.7
2023-01-15T12:41:51.224Z,12.5
2023-01-15T12:43:08.855Z,10.7
2023-01-15T12:44:21.077Z,8.3
2023-01-15T12:45:43.651Z,11.2
2023-01-15T12:46:50.679Z,12.6
2023-01-15T12:47:57.867Z,9
2023-01-15T12:49:15.467Z,9.2
2023-01-15T12:50:25.146Z,16.2
2023-01-15T12:51:32.326Z,9.5
2023-01-15T12:52:47.701Z,10.5
2023-01-15T12:53:54.768Z,14.2
2023-01-15T12:55:06.851Z,10.2
2023-01-15T12:56:19.113Z,25.4
2023-01-15T12:57:31.547Z,18.4
2023-01-15T12:58:38.511Z,8.5
2023-01-15T12:59:50.810Z,9.3
2023-01-15T13:00:58.057Z,15
2023-01-15T13:02:13.122Z,8.6
2023-01-15T13:03:20.288Z,8.6
2023-01-15T13:04:30.441Z,8.5
2023-01-15T13:05:37.612Z,9.4
2023-01-15T13:06:49.928Z,17.4
2023-01-15T13:07:56.885Z,9.5
2023-01-15T13:09:12.083Z,17.1
2023-01-15T13:10:21.840Z,12.1
2023-01-15T13:11:31.600Z,8.2
2023-01-15T13:12:38.639Z,8.2
2023-01-15T13:13:45.843Z,7.7
2023-01-15T13:14:53.029Z,9.5
2023-01-15T13:16:00.201Z,11.4
2023-01-15T13:17:10.208Z,9.7
2023-01-15T13:18:22.474Z,7.4
2023-01-15T13:19:29.688Z,8.5
2023-01-15T13:20:41.930Z,12.2
2023-01-15T13:21:51.756Z,13.4
2023-01-15T13:22:58.706Z,15.1
2023-01-15T13:24:11.411Z,11
2023-01-15T13:25:29.767Z,24.5
2023-01-15T13:26:35.875Z,9.9
2023-01-15T13:27:51.115Z,9.9
2023-01-15T13:29:06.390Z,8.9
2023-01-15T13:30:18.577Z,13.3
2023-01-15T13:31:30.970Z,8.8
2023-01-15T13:32:46.110Z,9.8
2023-01-15T13:33:53.331Z,14.1
2023-01-15T13:35:00.507Z,18.7
2023-01-15T13:36:16.109Z,18.9
2023-01-15T13:37:28.362Z,10
2023-01-15T13:38:39.239Z,12.9
2023-01-15T13:39:47.139Z,10.1
2023-01-15T13:40:54.665Z,13.1
2023-01-15T13:42:02.015Z,10
2023-01-15T13:43:14.346Z,14.8
2023-01-15T13:44:26.455Z,12.6
2023-01-15T13:45:33.628Z,14
2023-01-15T13:46:45.883Z,14.3
2023-01-15T13:48:03.057Z,14.7
2023-01-15T13:49:15.802Z,10.4
2023-01-15T13:50:26.007Z,13.5
2023-01-15T13:51:38.532Z,16.2
2023-01-15T13:52:45.399Z,12.7
2023-01-15T13:53:52.806Z,16.7
2023-01-15T13:54:59.807Z,13.7
2023-01-15T13:56:16.935Z,13.5
2023-01-15T13:57:29.432Z,15.4
2023-01-15T13:58:39.379Z,11.3
2023-01-15T13:59:54.743Z,9.4
2023-01-15T14:01:01.855Z,11.7
2023-01-15T14:02:11.330Z,11
2023-01-15T14:03:26.687Z,9.3
2023-01-15T14:04:33.881Z,8.8
2023-01-15T14:05:41.051Z,8.8
2023-01-15T14:06:48.119Z,7.7
2023-01-15T14:07:55.338Z,7.7
2023-01-15T14:09:02.263Z,10
2023-01-15T14:10:10.513Z,9
2023-01-15T14:11:20.099Z,7
2023-01-15T14:12:38.153Z,9.3
2023-01-15T14:13:54.140Z,7.6
2023-01-15T14:15:09.506Z,9.3
2023-01-15T14:16:24.370Z,8.2
2023-01-15T14:17:39.714Z,10.8
2023-01-15T14:18:57.003Z,9.3
2023-01-15T14:20:12.060Z,10.7
2023-01-15T14:21:27.517Z,9.3
2023-01-15T14:22:40.224Z,8
2023-01-15T14:23:52.983Z,7.8
2023-01-15T14:25:08.251Z,8.9
2023-01-15T14:26:21.387Z,7.6
2023-01-15T14:27:38.745Z,7.4
2023-01-15T14:28:54.059Z,6.9
2023-01-15T14:30:09.287Z,8.3
2023-01-15T14:31:19.938Z,7.5
2023-01-15T14:32:37.214Z,8.1
2023-01-15T14:33:54.543Z,8.3
2023-01-15T14:35:01.778Z,8
2023-01-15T14:36:08.724Z,6.8
2023-01-15T14:37:21.499Z,8.3
2023-01-15T14:38:33.720Z,8.5
2023-01-15T14:39:40.842Z,7.4
2023-01-15T14:40:53.719Z,7.4
2023-01-15T14:42:03.868Z,7.8
2023-01-15T14:43:19.029Z,7.3
2023-01-15T14:44:26.119Z,7.9
2023-01-15T14:45:33.373Z,8.9
2023-01-15T14:46:43.624Z,11.4
2023-01-15T14:47:50.698Z,12.1
2023-01-15T14:48:57.642Z,13.5
2023-01-15T14:50:04.972Z,12.3
2023-01-15T14:51:22.433Z,10.3
2023-01-15T14:52:32.762Z,12.2
2023-01-15T14:53:40.054Z,13.9
2023-01-15T14:54:47.631Z,12.3
2023-01-15T14:55:54.821Z,10.4
2023-01-15T14:57:04.818Z,10.5
2023-01-15T14:58:11.964Z,10.6
2023-01-15T14:59:27.524Z,9.7
2023-01-15T15:00:40.067Z,11
2023-01-15T15:01:47.654Z,11.8
2023-01-15T15:02:54.437Z,11
2023-01-15T15:04:01.502Z,9.8
2023-01-15T15:05:14.067Z,9.6
2023-01-15T15:06:21.158Z,8.6
2023-01-15T15:07:28.587Z,9.7
2023-01-15T15:08:38.316Z,10.1
2023-01-15T15:09:45.204Z,9
2023-01-15T15:10:57.370Z,11.4
2023-01-15T15:12:04.482Z,10
2023-01-15T15:13:21.878Z,8.4
2023-01-15T15:14:32.882Z,8.7
2023-01-15T15:15:40.973Z,9.2
2023-01-15T15:16:50.927Z,10.1
2023-01-15T15:17:58.230Z,13.2
2023-01-15T15:19:17.031Z,14.9
2023-01-15T15:20:29.058Z,17.1
2023-01-15T15:21:46.786Z,21.3
2023-01-15T15:22:53.946Z,24.5
2023-01-15T15:24:11.262Z,20.1
2023-01-15T15:25:26.043Z,24.6
2023-01-15T15:26:33.988Z,23.7
2023-01-15T15:27:41.426Z,20.4
2023-01-15T15:28:48.499Z,18.9
2023-01-15T15:29:58.098Z,19.3
2023-01-15T15:31:08.731Z,19.4
2023-01-15T15:32:16.876Z,20.7
2023-01-15T15:33:24.017Z,22.1
2023-01-15T15:34:36.158Z,20.9
2023-01-15T15:35:43.318Z,20.1
2023-01-15T15:36:50.440Z,17.8
2023-01-15T15:37:57.828Z,20
2023-01-15T15:39:06.102Z,21.3
2023-01-15T15:40:23.679Z,22.6
2023-01-15T15:41:35.748Z,20.4
2023-01-15T15:42:47.978Z,21.7
2023-01-15T15:44:08.274Z,22.8
2023-01-15T15:45:20.581Z,23.8
2023-01-15T15:46:32.753Z,23.6